Time;durP1;ratioP1;P1;durP2;ratioP2;P2;SDS_P1;SDS_P2;PMS_P1;PMS_P2;Temp;Humidity;BMP_temperature;BMP_pressure;BME280_temperature;BME280_humidity;BME280_pressure;Samples;Min_cycle;Max_cycle;Signal;HPM_P1;HPM_P2
2021/01/29 00:00:08;;;;;;;6.23;1.83;;;-10.40;99.90;;;;;;4960053;28;20560;-78
2021/01/29 00:02:33;;;;;;;1.70;1.20;;;-10.40;99.90;;;;;;4965380;28;20269;-76
2021/01/29 00:04:59;;;;;;;4.10;1.40;;;-10.40;99.90;;;;;;4982073;28;20607;-77
2021/01/29 00:07:25;;;;;;;1.63;1.30;;;-10.50;99.90;;;;;;4982865;28;20200;-79
2021/01/29 00:09:51;;;;;;;6.60;1.63;;;-10.50;99.90;;;;;;4979411;28;20203;-77
2021/01/29 00:12:17;;;;;;;2.80;1.67;;;-10.50;99.90;;;;;;4981717;28;20670;-77
2021/01/29 00:14:42;;;;;;;5.17;1.70;;;-10.50;99.90;;;;;;4980750;28;20199;-77
2021/01/29 00:17:08;;;;;;;3.80;1.40;;;-10.60;99.90;;;;;;4994675;28;20207;-76
2021/01/29 00:19:34;;;;;;;3.50;1.40;;;-10.60;99.90;;;;;;4994024;28;20669;-77
2021/01/29 00:21:59;;;;;;;2.27;1.50;;;-10.60;99.90;;;;;;4973343;28;20207;-78
2021/01/29 00:24:25;;;;;;;6.60;1.30;;;-10.60;99.90;;;;;;4981883;28;20797;-78
2021/01/29 00:26:51;;;;;;;2.03;1.40;;;-10.70;99.90;;;;;;4978842;28;20684;-78
2021/01/29 00:29:17;;;;;;;7.47;1.60;;;-10.70;99.90;;;;;;4980958;28;20210;-77
2021/01/29 00:31:42;;;;;;;6.37;1.33;;;-10.70;99.90;;;;;;4997600;28;20210;-77
2021/01/29 00:34:08;;;;;;;7.87;1.50;;;-10.80;99.90;;;;;;4973434;28;20223;-81
2021/01/29 00:36:34;;;;;;;4.80;1.60;;;-10.80;99.90;;;;;;4995331;28;20546;-76
2021/01/29 00:38:59;;;;;;;4.07;1.57;;;-10.80;99.90;;;;;;4995017;28;20219;-77
2021/01/29 00:41:25;;;;;;;7.47;1.37;;;-10.80;99.90;;;;;;4983717;28;20203;-79
2021/01/29 00:43:52;;;;;;;5.93;1.67;;;-10.80;99.90;;;;;;4981864;28;20202;-76
2021/01/29 00:46:20;;;;;;;15.27;1.70;;;-10.80;99.90;;;;;;4978980;28;20195;-76
2021/01/29 00:48:47;;;;;;;1.43;1.33;;;-10.90;99.90;;;;;;4984348;28;20704;-78
2021/01/29 00:51:13;;;;;;;3.67;1.47;;;-10.90;99.90;;;;;;4984107;28;20207;-79
2021/01/29 00:53:39;;;;;;;4.07;1.57;;;-10.90;99.90;;;;;;4983545;28;20218;-79
2021/01/29 00:56:06;;;;;;;2.43;1.47;;;-11.00;99.90;;;;;;4984593;28;20196;-78
2021/01/29 00:58:33;;;;;;;5.60;1.80;;;-11.00;99.90;;;;;;4980665;28;20262;-78
2021/01/29 01:00:59;;;;;;;3.57;1.67;;;-11.10;99.90;;;;;;4979859;28;20290;-78
2021/01/29 01:03:24;;;;;;;9.93;1.80;;;-11.10;99.90;;;;;;4994781;28;20280;-78
2021/01/29 01:05:51;;;;;;;6.17;1.60;;;-11.10;99.90;;;;;;4989367;28;20199;-77
2021/01/29 01:08:17;;;;;;;2.03;1.53;;;-11.10;99.90;;;;;;4985904;28;20268;-76
2021/01/29 01:10:43;;;;;;;2.63;1.50;;;-11.10;99.90;;;;;;5005133;28;20207;-77
2021/01/29 01:13:09;;;;;;;1.80;1.50;;;-11.10;99.90;;;;;;4987006;28;20642;-75
2021/01/29 01:15:35;;;;;;;10.27;1.70;;;-11.10;99.90;;;;;;4985067;28;20230;-79
2021/01/29 01:18:03;;;;;;;6.17;1.77;;;-11.20;99.90;;;;;;5001564;28;20706;-79
2021/01/29 01:20:29;;;;;;;6.23;1.70;;;-11.20;99.90;;;;;;4987771;28;20209;-77
2021/01/29 01:22:56;;;;;;;5.13;1.97;;;-11.20;99.90;;;;;;5001420;28;20202;-76
2021/01/29 01:25:23;;;;;;;8.17;1.87;;;-11.20;99.90;;;;;;5003886;28;20208;-76
2021/01/29 01:27:50;;;;;;;8.97;1.77;;;-11.20;99.90;;;;;;4984346;28;20198;-76
2021/01/29 01:30:30;;;;;;;5.63;1.87;;;-11.30;99.90;;;;;;4976614;28;20602;-79
2021/01/29 01:32:56;;;;;;;2.13;1.30;;;-11.30;99.90;;;;;;4982719;28;20207;-77
2021/01/29 01:35:22;;;;;;;7.87;1.50;;;-11.30;99.90;;;;;;4987682;28;20198;-76
2021/01/29 01:37:49;;;;;;;5.73;1.80;;;-11.30;99.90;;;;;;4986685;28;20222;-78
2021/01/29 01:40:22;;;;;;;4.80;1.97;;;-11.40;99.90;;;;;;4988941;28;20237;-77
2021/01/29 01:42:48;;;;;;;4.80;1.67;;;-11.40;99.90;;;;;;5000987;28;20226;-79
2021/01/29 01:45:29;;;;;;;7.63;1.60;;;-11.40;99.90;;;;;;4988030;28;20195;-77
2021/01/29 01:48:07;;;;;;;6.67;1.63;;;-11.50;99.90;;;;;;4998454;28;20205;-76
2021/01/29 01:50:34;;;;;;;2.97;1.30;;;-11.50;99.90;;;;;;4984628;28;20237;-77
2021/01/29 01:53:03;;;;;;;2.07;1.33;;;-11.50;99.90;;;;;;5002604;28;20239;-77
2021/01/29 01:55:40;;;;;;;1.80;1.50;;;-11.60;99.90;;;;;;4988000;28;20234;-77
2021/01/29 01:58:08;;;;;;;5.43;1.50;;;-11.60;99.90;;;;;;5001165;28;20214;-77
2021/01/29 02:00:35;;;;;;;2.83;1.50;;;-11.60;99.90;;;;;;4986169;28;20203;-79
2021/01/29 02:03:05;;;;;;;8.47;1.50;;;-11.70;99.90;;;;;;4990888;23;20607;-69
2021/01/29 02:05:35;;;;;;;2.30;1.87;;;-11.70;99.90;;;;;;5002182;28;20565;-68
2021/01/29 02:08:10;;;;;;;4.73;1.70;;;-11.80;99.90;;;;;;5006804;28;20270;-68
2021/01/29 02:10:37;;;;;;;5.47;1.80;;;-11.80;99.90;;;;;;5000974;28;20803;-68
2021/01/29 02:13:04;;;;;;;7.47;1.67;;;-11.80;99.90;;;;;;5006172;28;20222;-68
2021/01/29 02:15:33;;;;;;;2.07;1.40;;;-11.80;99.90;;;;;;5000981;28;20202;-69
2021/01/29 02:18:16;;;;;;;4.03;1.50;;;-11.80;99.90;;;;;;5003164;28;20747;-68
2021/01/29 02:21:08;;;;;;;2.47;1.47;;;-11.80;99.90;;;;;;5005714;28;20212;-68
2021/01/29 02:23:46;;;;;;;7.00;1.80;;;-11.80;99.90;;;;;;5004902;28;20742;-67
2021/01/29 02:26:40;;;;;;;5.17;1.50;;;-11.80;99.90;;;;;;5004105;28;20187;-68
2021/01/29 02:29:24;;;;;;;4.97;1.10;;;-11.80;99.90;;;;;;5000643;28;20916;-69
2021/01/29 02:32:18;;;;;;;1.67;1.40;;;-11.80;99.90;;;;;;5002974;28;20195;-69
2021/01/29 02:35:17;;;;;;;2.67;1.90;;;-11.80;99.90;;;;;;5004379;28;20276;-67
2021/01/29 02:38:11;;;;;;;2.27;1.37;;;-11.90;99.90;;;;;;5003158;28;20214;-68
2021/01/29 02:40:51;;;;;;;3.70;1.57;;;-11.90;99.90;;;;;;5004413;28;20195;-70
2021/01/29 02:43:40;;;;;;;7.20;1.43;;;-11.90;99.90;;;;;;5006561;28;20201;-68
2021/01/29 02:46:13;;;;;;;2.50;1.40;;;-11.80;99.90;;;;;;4978146;28;20211;-69
2021/01/29 02:48:39;;;;;;;9.10;1.40;;;-11.90;99.90;;;;;;4999897;28;21422;-68
2021/01/29 02:51:33;;;;;;;1.70;1.33;;;-11.80;99.90;;;;;;5001713;28;20215;-68
2021/01/29 02:54:26;;;;;;;2.10;1.30;;;-11.90;99.90;;;;;;5004108;28;20222;-68
2021/01/29 02:56:59;;;;;;;2.20;1.33;;;-11.80;99.90;;;;;;4998222;28;20293;-68
2021/01/29 02:59:44;;;;;;;1.20;1.10;;;-11.80;99.90;;;;;;5005476;28;20265;-68
2021/01/29 03:02:20;;;;;;;2.03;1.20;;;-11.90;99.90;;;;;;4986101;28;20214;-67
2021/01/29 03:04:55;;;;;;;4.77;1.37;;;-11.90;99.90;;;;;;5020393;28;20818;-68
2021/01/29 03:07:26;;;;;;;3.37;1.63;;;-11.80;99.90;;;;;;5021261;28;20684;-68
2021/01/29 03:10:04;;;;;;;3.90;1.30;;;-11.70;99.90;;;;;;5021571;28;20206;-68
2021/01/29 03:12:35;;;;;;;5.77;1.50;;;-11.70;99.90;;;;;;5021728;28;20230;-68
2021/01/29 03:15:17;;;;;;;8.23;1.30;;;-11.70;99.90;;;;;;5021449;28;20543;-68
2021/01/29 03:17:55;;;;;;;6.30;1.60;;;-11.70;99.90;;;;;;5018813;28;20283;-68
2021/01/29 03:20:21;;;;;;;5.23;1.50;;;-11.70;99.90;;;;;;5004623;28;20198;-69
2021/01/29 03:23:03;;;;;;;3.37;1.50;;;-11.70;99.90;;;;;;5024437;28;20225;-68
2021/01/29 03:25:36;;;;;;;3.10;1.60;;;-11.60;99.90;;;;;;5019164;28;20191;-68
2021/01/29 03:28:19;;;;;;;1.47;1.07;;;-11.50;99.90;;;;;;5019961;28;20198;-67
2021/01/29 03:30:48;;;;;;;1.10;1.10;;;-11.40;99.90;;;;;;5014472;28;20186;-68
2021/01/29 03:33:16;;;;;;;8.53;1.63;;;-11.40;99.90;;;;;;5001775;28;20198;-67
2021/01/29 03:35:55;;;;;;;4.90;1.60;;;-11.50;99.90;;;;;;5022025;28;20217;-70
2021/01/29 03:38:36;;;;;;;3.13;1.27;;;-11.60;99.90;;;;;;5000775;28;20213;-69
2021/01/29 03:41:36;;;;;;;1.73;1.20;;;-11.70;99.90;;;;;;5019555;28;20711;-68
2021/01/29 03:44:27;;;;;;;2.37;1.23;;;-11.70;99.90;;;;;;4960942;28;20210;-69
2021/01/29 03:47:21;;;;;;;4.10;1.60;;;-11.70;99.90;;;;;;5018434;28;20544;-69
2021/01/29 03:50:02;;;;;;;2.07;1.10;;;-11.80;99.90;;;;;;5019721;28;20194;-68
2021/01/29 03:52:46;;;;;;;1.00;1.00;;;-11.80;99.90;;;;;;5005766;28;20190;-68
2021/01/29 03:55:40;;;;;;;7.07;1.40;;;-11.90;99.90;;;;;;5020742;28;20233;-69
2021/01/29 03:58:24;;;;;;;6.13;1.30;;;-11.90;99.90;;;;;;5020633;28;20290;-66
2021/01/29 04:01:02;;;;;;;2.73;1.17;;;-12.00;99.90;;;;;;5020881;28;20198;-68
2021/01/29 04:03:47;;;;;;;2.50;1.50;;;-12.00;99.90;;;;;;5020492;28;20257;-69
2021/01/29 04:06:20;;;;;;;3.27;1.30;;;-12.00;99.90;;;;;;5004479;28;20221;-69
2021/01/29 04:09:10;;;;;;;2.73;1.50;;;-12.00;99.90;;;;;;5021370;28;20201;-69
2021/01/29 04:11:59;;;;;;;3.93;1.30;;;-12.00;99.90;;;;;;5021659;28;20194;-68
2021/01/29 04:15:02;;;;;;;1.47;1.30;;;-12.00;99.90;;;;;;5019964;28;20198;-67
2021/01/29 04:17:34;;;;;;;9.50;1.20;;;-12.00;99.90;;;;;;5021109;28;20687;-68
2021/01/29 04:20:12;;;;;;;5.13;1.23;;;-12.00;99.90;;;;;;5021527;28;20202;-69
2021/01/29 04:22:41;;;;;;;3.93;1.00;;;-12.00;99.90;;;;;;5026966;28;20718;-69
2021/01/29 04:25:27;;;;;;;1.13;1.03;;;-12.00;99.90;;;;;;5007255;28;20593;-68
2021/01/29 04:28:02;;;;;;;3.83;1.37;;;-12.00;99.90;;;;;;5022661;28;20217;-68
2021/01/29 04:30:31;;;;;;;3.13;1.40;;;-12.00;99.90;;;;;;5025650;28;20213;-69
2021/01/29 04:33:30;;;;;;;3.93;1.50;;;-12.10;99.90;;;;;;5026632;28;20230;-67
2021/01/29 04:35:58;;;;;;;2.13;1.30;;;-12.10;99.90;;;;;;5024170;28;20225;-69
2021/01/29 04:38:42;;;;;;;1.20;1.10;;;-12.10;99.90;;;;;;5025619;28;20198;-69
2021/01/29 04:41:29;;;;;;;1.27;1.17;;;-12.10;99.90;;;;;;5025245;28;20190;-68
2021/01/29 04:44:02;;;;;;;5.63;1.30;;;-12.10;99.90;;;;;;5024219;28;20320;-68
2021/01/29 04:46:46;;;;;;;8.00;1.40;;;-12.20;99.90;;;;;;5005278;28;20226;-67
2021/01/29 04:49:40;;;;;;;4.17;1.20;;;-12.20;99.90;;;;;;5026802;28;20333;-69
2021/01/29 04:52:14;;;;;;;1.63;1.00;;;-12.20;99.90;;;;;;5026918;28;20639;-69
2021/01/29 04:55:01;;;;;;;1.13;1.03;;;-12.20;99.90;;;;;;5014342;28;20198;-69
2021/01/29 04:57:45;;;;;;;1.53;1.17;;;-12.20;99.90;;;;;;5022114;28;20333;-68
2021/01/29 05:00:54;;;;;;;1.63;1.40;;;-12.30;99.90;;;;;;5020745;28;20203;-68
2021/01/29 05:03:47;;;;;;;1.33;1.10;;;-12.30;99.90;;;;;;4953614;28;20237;-67
2021/01/29 05:06:50;;;;;;;2.40;1.20;;;-12.30;99.90;;;;;;4985216;28;20223;-68
2021/01/29 05:09:50;;;;;;;3.23;1.00;;;-12.30;99.90;;;;;;4984814;28;20211;-69
2021/01/29 05:12:34;;;;;;;3.20;1.50;;;-12.20;99.90;;;;;;4987142;28;20966;-69
2021/01/29 05:15:51;;;;;;;1.00;1.00;;;-12.20;99.90;;;;;;4982089;28;20575;-69
2021/01/29 05:18:22;;;;;;;3.27;1.20;;;-12.20;99.90;;;;;;4950347;28;20701;-70
2021/01/29 05:21:25;;;;;;;1.90;1.40;;;-12.20;99.90;;;;;;4986961;28;20196;-70
2021/01/29 05:23:54;;;;;;;1.30;1.20;;;-12.20;99.90;;;;;;4983537;28;20230;-70
2021/01/29 05:26:41;;;;;;;6.03;1.60;;;-12.20;99.90;;;;;;4983102;28;20689;-70
2021/01/29 05:29:18;;;;;;;2.13;1.60;;;-12.20;99.90;;;;;;4976345;28;20663;-70
2021/01/29 05:32:26;;;;;;;3.43;1.60;;;-12.30;99.90;;;;;;4986563;28;20202;-69
2021/01/29 05:35:29;;;;;;;7.00;1.50;;;-12.30;99.90;;;;;;4925858;29;20225;-70
2021/01/29 05:38:08;;;;;;;2.90;1.50;;;-12.30;99.90;;;;;;4912328;29;20249;-71
2021/01/29 05:41:06;;;;;;;5.73;1.60;;;-12.40;99.90;;;;;;4930284;29;20208;-69
2021/01/29 05:43:56;;;;;;;3.30;1.70;;;-12.40;99.90;;;;;;4924842;29;20224;-70
2021/01/29 05:46:35;;;;;;;3.00;1.67;;;-12.40;99.90;;;;;;4929654;29;20202;-70
2021/01/29 05:49:23;;;;;;;9.50;1.73;;;-12.40;99.90;;;;;;4927719;28;20226;-70
2021/01/29 05:52:27;;;;;;;10.57;1.47;;;-12.40;99.90;;;;;;4927600;29;20327;-69
2021/01/29 05:55:24;;;;;;;3.03;1.53;;;-12.40;99.90;;;;;;4927520;29;20623;-70
2021/01/29 05:58:30;;;;;;;2.57;1.63;;;-12.40;99.90;;;;;;4939303;28;20205;-69
2021/01/29 06:01:17;;;;;;;4.90;1.60;;;-12.50;99.90;;;;;;4927523;29;20209;-70
2021/01/29 06:04:04;;;;;;;3.27;1.50;;;-12.50;99.90;;;;;;4935816;28;20285;-70
2021/01/29 06:06:33;;;;;;;3.97;1.53;;;-12.50;99.90;;;;;;4935493;29;20288;-69
2021/01/29 06:09:09;;;;;;;4.93;1.50;;;-12.50;99.90;;;;;;4962783;28;20602;-69
2021/01/29 06:11:47;;;;;;;3.40;1.50;;;-12.50;99.90;;;;;;4987225;28;20206;-69
2021/01/29 06:14:40;;;;;;;7.50;1.63;;;-12.60;99.90;;;;;;4978097;28;20204;-70
2021/01/29 06:17:09;;;;;;;5.17;1.70;;;-12.60;99.90;;;;;;4981579;28;20196;-70
2021/01/29 06:20:24;;;;;;;4.97;1.60;;;-12.60;99.90;;;;;;4979081;28;20203;-70
2021/01/29 06:23:08;;;;;;;5.77;2.40;;;-12.70;99.90;;;;;;4885104;29;20773;-70
2021/01/29 06:25:34;;;;;;;8.80;3.37;;;-12.70;99.90;;;;;;4970151;28;20208;-69
2021/01/29 06:28:41;;;;;;;9.63;3.67;;;-12.70;99.90;;;;;;4984270;28;20269;-70
2021/01/29 06:31:44;;;;;;;11.43;4.27;;;-12.80;99.90;;;;;;4968111;28;20569;-70
2021/01/29 06:34:18;;;;;;;13.13;4.83;;;-12.80;99.90;;;;;;4976866;28;20282;-71
2021/01/29 06:37:10;;;;;;;13.47;5.67;;;-12.80;99.90;;;;;;4981764;28;20249;-70
2021/01/29 06:40:00;;;;;;;9.57;4.10;;;-12.90;99.90;;;;;;4976793;28;20234;-70
2021/01/29 06:43:10;;;;;;;15.57;3.20;;;-12.80;99.90;;;;;;4980458;28;20236;-71
2021/01/29 06:45:38;;;;;;;9.33;3.40;;;-12.80;99.90;;;;;;4936324;28;20676;-70
2021/01/29 06:48:16;;;;;;;5.97;2.63;;;-12.80;99.90;;;;;;4978601;28;20211;-70
2021/01/29 06:51:07;;;;;;;4.43;2.63;;;-12.80;99.90;;;;;;4979497;28;20210;-70
2021/01/29 06:53:39;;;;;;;6.63;2.80;;;-12.70;99.90;;;;;;4977980;28;20756;-70
2021/01/29 06:56:10;;;;;;;9.23;2.83;;;-12.80;99.90;;;;;;4977013;28;20215;-69
2021/01/29 06:58:58;;;;;;;2.23;1.90;;;-12.80;99.90;;;;;;4979527;28;20262;-69
2021/01/29 07:01:48;;;;;;;6.00;2.50;;;-12.80;99.90;;;;;;4981576;28;20702;-69
2021/01/29 07:04:42;;;;;;;6.50;2.50;;;-12.80;99.90;;;;;;5011815;28;20237;-70
2021/01/29 07:07:20;;;;;;;7.77;2.20;;;-12.80;99.90;;;;;;5020957;28;20218;-70
2021/01/29 07:10:04;;;;;;;5.60;2.10;;;-12.90;99.90;;;;;;5016795;28;20812;-70
2021/01/29 07:12:35;;;;;;;3.57;2.13;;;-12.90;99.90;;;;;;5018167;28;20210;-69
2021/01/29 07:15:19;;;;;;;4.83;2.20;;;-12.90;99.90;;;;;;5016299;28;20209;-71
2021/01/29 07:18:13;;;;;;;4.37;2.10;;;-12.90;99.90;;;;;;5016274;28;20262;-69
2021/01/29 07:21:03;;;;;;;10.00;2.80;;;-12.90;99.90;;;;;;5019924;28;21012;-67
2021/01/29 07:23:48;;;;;;;9.00;2.67;;;-12.90;99.90;;;;;;5018186;28;20194;-69
2021/01/29 07:26:14;;;;;;;9.23;2.47;;;-13.00;99.90;;;;;;5016144;28;20716;-70
2021/01/29 07:29:10;;;;;;;4.87;2.67;;;-13.00;99.90;;;;;;5021887;28;20296;-70
2021/01/29 07:32:04;;;;;;;4.17;2.60;;;-12.90;99.90;;;;;;5018461;28;20236;-67
2021/01/29 07:34:34;;;;;;;6.13;2.40;;;-12.90;99.90;;;;;;5013499;28;20217;-70
2021/01/29 07:37:37;;;;;;;4.17;2.40;;;-12.90;99.90;;;;;;5019555;28;20202;-68
2021/01/29 07:40:35;;;;;;;5.20;2.50;;;-12.90;99.90;;;;;;5014592;28;20259;-70
2021/01/29 07:43:13;;;;;;;4.13;2.10;;;-12.90;99.90;;;;;;5008398;28;20529;-70
2021/01/29 07:46:02;;;;;;;2.60;1.87;;;-13.00;99.90;;;;;;5019818;28;20224;-70
2021/01/29 07:48:40;;;;;;;5.33;1.73;;;-13.00;99.90;;;;;;4997946;28;20206;-71
2021/01/29 07:51:08;;;;;;;3.33;1.87;;;-13.00;99.90;;;;;;5014815;28;20212;-70
2021/01/29 07:53:47;;;;;;;2.83;1.60;;;-13.00;99.90;;;;;;5020558;28;20206;-70
2021/01/29 07:56:37;;;;;;;7.33;1.93;;;-12.90;99.90;;;;;;5013872;28;20206;-70
2021/01/29 07:59:30;;;;;;;2.97;1.43;;;-12.80;99.90;;;;;;5004343;28;20286;-70
2021/01/29 08:02:40;;;;;;;10.33;1.70;;;-12.70;99.90;;;;;;5017156;28;20656;-70
2021/01/29 08:05:06;;;;;;;2.77;1.43;;;-12.70;99.90;;;;;;4987197;28;20253;-70
2021/01/29 08:07:37;;;;;;;2.97;1.57;;;-12.60;99.90;;;;;;5013272;28;20241;-70
2021/01/29 08:10:08;;;;;;;5.93;1.70;;;-12.60;99.90;;;;;;5013268;28;20272;-69
2021/01/29 08:12:38;;;;;;;1.93;1.20;;;-12.60;99.90;;;;;;5008393;28;20861;-71
2021/01/29 08:15:16;;;;;;;3.43;1.50;;;-12.60;99.90;;;;;;5021567;28;20194;-71
2021/01/29 08:18:18;;;;;;;5.53;1.83;;;-12.50;99.90;;;;;;5020886;28;20217;-70
2021/01/29 08:21:14;;;;;;;2.57;1.60;;;-12.50;99.90;;;;;;5016725;28;20615;-71
2021/01/29 08:23:47;;;;;;;3.80;1.53;;;-12.50;99.90;;;;;;5020572;28;20298;-70
2021/01/29 08:26:29;;;;;;;5.03;1.93;;;-12.40;99.90;;;;;;5017681;28;20213;-69
2021/01/29 08:29:25;;;;;;;2.53;1.90;;;-12.40;99.90;;;;;;5018249;28;20201;-70
2021/01/29 08:32:28;;;;;;;4.57;2.07;;;-12.40;99.90;;;;;;5017491;28;20233;-70
2021/01/29 08:35:15;;;;;;;6.10;2.60;;;-12.40;99.90;;;;;;5015021;28;20194;-70
2021/01/29 08:38:02;;;;;;;3.13;1.97;;;-12.40;99.90;;;;;;5017736;28;20213;-71
2021/01/29 08:40:46;;;;;;;10.87;2.70;;;-12.40;99.90;;;;;;5020883;28;20205;-70
2021/01/29 08:43:44;;;;;;;11.43;2.90;;;-12.40;99.90;;;;;;5003117;28;20198;-70
2021/01/29 08:46:33;;;;;;;4.00;2.30;;;-12.30;99.90;;;;;;4972053;28;20857;-69
2021/01/29 08:49:34;;;;;;;7.03;2.13;;;-12.30;99.90;;;;;;5017282;28;20190;-69
2021/01/29 08:52:26;;;;;;;5.03;2.53;;;-12.20;99.90;;;;;;4924912;29;20203;-69
2021/01/29 08:55:17;;;;;;;13.03;2.90;;;-12.10;99.90;;;;;;5009771;28;20547;-69
2021/01/29 08:58:05;;;;;;;5.87;2.50;;;-12.10;99.90;;;;;;5015585;28;20217;-70
2021/01/29 09:00:35;;;;;;;6.20;1.90;;;-12.00;99.90;;;;;;5018605;28;20194;-69
2021/01/29 09:03:21;;;;;;;4.03;2.17;;;-11.90;99.90;;;;;;5019412;28;21101;-70
2021/01/29 09:05:50;;;;;;;3.93;1.93;;;-11.80;99.90;;;;;;5020012;28;20201;-70
2021/01/29 09:08:20;;;;;;;7.53;2.30;;;-11.70;99.90;;;;;;5021850;28;20198;-68
2021/01/29 09:10:54;;;;;;;3.60;2.10;;;-11.60;99.90;;;;;;5016893;28;20219;-70
2021/01/29 09:13:22;;;;;;;8.17;2.37;;;-11.40;99.90;;;;;;5002563;28;20202;-67
2021/01/29 09:16:04;;;;;;;8.53;2.63;;;-11.30;99.90;;;;;;5000638;28;20229;-68
2021/01/29 09:18:30;;;;;;;8.33;4.00;;;-11.20;99.90;;;;;;5016063;28;20210;-68
2021/01/29 09:21:07;;;;;;;10.13;4.17;;;-11.10;99.90;;;;;;5020214;28;20252;-69
2021/01/29 09:23:53;;;;;;;8.20;2.70;;;-11.00;99.90;;;;;;5001332;28;20226;-68
2021/01/29 09:26:42;;;;;;;5.73;2.87;;;-10.80;99.90;;;;;;5017564;28;20209;-68
2021/01/29 09:29:17;;;;;;;5.23;2.70;;;-10.70;99.90;;;;;;5015261;28;20249;-68
2021/01/29 09:31:47;;;;;;;10.80;4.50;;;-10.60;99.90;;;;;;5019516;28;20198;-68
2021/01/29 09:34:20;;;;;;;6.27;3.30;;;-10.40;99.90;;;;;;5017409;28;20216;-69
2021/01/29 09:36:59;;;;;;;4.30;2.40;;;-10.20;99.90;;;;;;5021444;28;20199;-69
2021/01/29 09:39:33;;;;;;;4.83;2.60;;;-10.10;99.90;;;;;;5016418;28;20602;-68
2021/01/29 09:42:02;;;;;;;4.07;2.40;;;-9.90;99.90;;;;;;5001191;28;20544;-68
2021/01/29 09:44:39;;;;;;;6.33;3.10;;;-9.60;99.90;;;;;;5015147;28;20202;-68
2021/01/29 09:47:09;;;;;;;10.10;2.53;;;-9.30;99.90;;;;;;5017595;28;20567;-68
2021/01/29 09:49:37;;;;;;;11.73;3.40;;;-9.00;99.90;;;;;;4998694;28;20211;-69
2021/01/29 09:52:24;;;;;;;7.57;4.20;;;-8.70;99.90;;;;;;4997247;28;20210;-69
2021/01/29 09:54:57;;;;;;;7.63;2.37;;;-8.50;99.90;;;;;;5015589;28;20268;-68
2021/01/29 09:58:11;;;;;;;7.33;3.47;;;-8.20;99.90;;;;;;5017898;28;20691;-68
2021/01/29 10:00:40;;;;;;;8.97;3.70;;;-8.00;99.90;;;;;;5018497;28;20206;-68
2021/01/29 10:03:20;;;;;;;15.10;5.63;;;-7.90;99.90;;;;;;5020560;28;20668;-69
2021/01/29 10:05:50;;;;;;;4.93;2.83;;;-7.90;99.90;;;;;;5017959;28;21049;-68
2021/01/29 10:08:33;;;;;;;7.90;3.23;;;-8.00;99.90;;;;;;5018819;28;20249;-69
2021/01/29 10:11:24;;;;;;;4.33;2.20;;;-7.80;99.90;;;;;;5017611;28;20200;-69
2021/01/29 10:14:46;;;;;;;10.90;3.40;;;-7.60;99.90;;;;;;5018167;28;20210;-69
2021/01/29 10:17:33;;;;;;;5.20;3.30;;;-7.60;99.90;;;;;;4910350;29;20826;-69
2021/01/29 10:20:05;;;;;;;15.83;7.10;;;-7.60;99.90;;;;;;5014848;28;20248;-69
2021/01/29 10:22:31;;;;;;;6.93;3.80;;;-7.50;99.90;;;;;;5018370;28;20523;-68
2021/01/29 10:24:59;;;;;;;18.37;9.27;;;-7.40;99.90;;;;;;5012811;28;20655;-68
2021/01/29 10:27:37;;;;;;;10.30;5.70;;;-7.40;99.90;;;;;;5020092;28;20252;-68
2021/01/29 10:30:17;;;;;;;5.17;2.07;;;-7.30;99.90;;;;;;5016140;28;20193;-68
2021/01/29 10:32:57;;;;;;;14.83;7.17;;;-7.30;99.90;;;;;;5012776;28;20653;-68
2021/01/29 10:35:41;;;;;;;23.47;13.77;;;-7.20;99.90;;;;;;5017201;28;20214;-68
2021/01/29 10:38:16;;;;;;;15.83;5.13;;;-7.00;99.90;;;;;;5014413;28;20779;-69
2021/01/29 10:40:56;;;;;;;19.73;13.20;;;-7.10;99.90;;;;;;5014285;28;20240;-70
2021/01/29 10:43:36;;;;;;;6.10;4.40;;;-7.10;99.90;;;;;;5017997;28;20870;-69
2021/01/29 10:46:08;;;;;;;6.40;3.77;;;-7.10;99.90;;;;;;4994974;28;20480;-70
2021/01/29 10:49:08;;;;;;;3.40;2.07;;;-6.90;99.90;;;;;;5000049;28;20230;-69
2021/01/29 10:51:53;;;;;;;3.77;2.00;;;-6.70;99.90;;;;;;5012573;28;20317;-71
2021/01/29 10:54:24;;;;;;;3.40;1.97;;;-6.70;99.90;;;;;;4980203;28;20214;-69
2021/01/29 10:57:08;;;;;;;5.33;2.40;;;-6.60;99.90;;;;;;5016378;28;20205;-69
2021/01/29 10:59:45;;;;;;;8.30;1.83;;;-6.60;99.90;;;;;;5013991;28;20202;-70
2021/01/29 11:02:20;;;;;;;9.30;4.43;;;-6.60;99.90;;;;;;5016062;28;20202;-70
2021/01/29 11:04:58;;;;;;;11.50;4.00;;;-6.70;99.90;;;;;;5018251;28;20292;-69
2021/01/29 11:07:26;;;;;;;12.43;8.00;;;-6.70;99.90;;;;;;5000457;28;20202;-69
2021/01/29 11:10:01;;;;;;;8.67;3.47;;;-6.60;99.90;;;;;;5000420;28;20210;-69
2021/01/29 11:12:38;;;;;;;3.67;1.90;;;-6.70;99.90;;;;;;5010850;28;20190;-70
2021/01/29 11:15:35;;;;;;;2.00;1.60;;;-6.60;99.90;;;;;;5021599;28;20209;-69
2021/01/29 11:18:17;;;;;;;6.90;2.33;;;-6.60;99.90;;;;;;5020250;28;20224;-69
2021/01/29 11:20:43;;;;;;;4.70;1.97;;;-6.50;99.90;;;;;;5013626;28;20681;-69
2021/01/29 11:23:28;;;;;;;7.70;1.57;;;-6.40;99.90;;;;;;5012220;28;20197;-70
2021/01/29 11:25:59;;;;;;;2.90;1.57;;;-6.40;99.90;;;;;;5011284;28;20199;-69
2021/01/29 11:28:55;;;;;;;2.43;1.30;;;-6.40;99.90;;;;;;5012373;28;20203;-69
2021/01/29 11:31:45;;;;;;;3.47;1.70;;;-6.30;99.90;;;;;;5013372;28;20198;-69
2021/01/29 11:34:25;;;;;;;16.07;1.63;;;-6.20;99.90;;;;;;5015125;28;20525;-69
2021/01/29 11:37:18;;;;;;;3.03;1.37;;;-6.20;99.90;;;;;;5017106;28;20202;-69
2021/01/29 11:39:56;;;;;;;5.57;1.80;;;-6.10;99.90;;;;;;4999406;28;20687;-69
2021/01/29 11:42:39;;;;;;;3.40;1.47;;;-6.10;99.90;;;;;;5021402;28;20273;-70
2021/01/29 11:45:27;;;;;;;7.93;1.50;;;-6.10;99.90;;;;;;5013661;28;20190;-69
2021/01/29 11:48:13;;;;;;;2.50;1.40;;;-6.00;99.90;;;;;;5012571;28;20209;-69
2021/01/29 11:50:45;;;;;;;5.40;1.60;;;-5.90;99.90;;;;;;5015986;28;20236;-69
2021/01/29 11:53:39;;;;;;;1.57;1.47;;;-5.70;99.90;;;;;;5009571;28;20237;-69
2021/01/29 11:56:15;;;;;;;5.57;2.27;;;-5.70;99.90;;;;;;5012077;28;20665;-70
2021/01/29 11:59:07;;;;;;;4.00;1.60;;;-5.80;99.90;;;;;;5016418;28;20217;-69
2021/01/29 12:01:38;;;;;;;5.70;1.57;;;-6.10;99.90;;;;;;5016253;28;20236;-70
2021/01/29 12:04:48;;;;;;;1.93;1.20;;;-6.20;99.90;;;;;;5017847;28;20296;-70
2021/01/29 12:07:30;;;;;;;6.20;1.70;;;-6.30;99.90;;;;;;5018513;28;20204;-69
2021/01/29 12:09:59;;;;;;;4.60;1.70;;;-6.30;99.90;;;;;;5012485;28;20198;-70
2021/01/29 12:12:29;;;;;;;31.03;5.53;;;-6.20;99.90;;;;;;5019595;28;20198;-69
2021/01/29 12:15:21;;;;;;;16.03;3.93;;;-6.00;99.90;;;;;;5011550;28;20281;-70
2021/01/29 12:17:57;;;;;;;7.97;2.87;;;-5.90;99.90;;;;;;5010195;28;20687;-69
2021/01/29 12:20:30;;;;;;;2.80;2.00;;;-6.00;99.90;;;;;;5018516;28;20210;-70
2021/01/29 12:23:24;;;;;;;8.47;3.23;;;-5.90;99.90;;;;;;5015485;28;20206;-69
2021/01/29 12:25:56;;;;;;;3.60;1.50;;;-6.20;99.90;;;;;;4964750;28;20264;-69
2021/01/29 12:28:34;;;;;;;5.00;1.50;;;-6.30;99.90;;;;;;5016229;28;20218;-69
2021/01/29 12:31:18;;;;;;;3.23;1.40;;;-6.20;99.90;;;;;;5015864;28;20596;-69
2021/01/29 12:33:53;;;;;;;3.37;1.30;;;-5.30;99.90;;;;;;5020890;28;20622;-68
2021/01/29 12:36:22;;;;;;;3.03;1.30;;;-5.00;99.90;;;;;;4995800;28;20203;-69
2021/01/29 12:38:55;;;;;;;1.73;1.37;;;-4.60;99.90;;;;;;5019908;28;20256;-68
2021/01/29 12:41:28;;;;;;;1.47;1.37;;;-4.80;99.90;;;;;;5019216;28;20190;-69
2021/01/29 12:44:16;;;;;;;3.97;1.30;;;-5.40;99.90;;;;;;5020508;28;20675;-69
2021/01/29 12:46:50;;;;;;;2.33;1.40;;;-6.10;99.90;;;;;;5016950;28;20648;-70
2021/01/29 12:49:38;;;;;;;2.57;1.50;;;-6.60;99.90;;;;;;4999496;28;20680;-69
2021/01/29 12:52:12;;;;;;;5.33;1.20;;;-6.90;99.90;;;;;;5018185;28;20232;-68
2021/01/29 12:54:50;;;;;;;2.37;1.37;;;-7.10;99.90;;;;;;5014665;28;20285;-68
2021/01/29 12:57:21;;;;;;;1.73;1.23;;;-7.30;99.90;;;;;;5022523;28;20210;-69
2021/01/29 12:59:53;;;;;;;3.17;1.30;;;-7.40;99.90;;;;;;5018668;28;20686;-68
2021/01/29 13:02:33;;;;;;;3.53;1.60;;;-7.50;99.90;;;;;;5015867;28;20194;-69
2021/01/29 13:05:08;;;;;;;1.80;1.30;;;-7.60;99.90;;;;;;5017364;28;20860;-69
2021/01/29 13:07:51;;;;;;;3.90;1.43;;;-7.70;99.90;;;;;;5020639;28;20201;-68
2021/01/29 13:10:39;;;;;;;2.40;1.13;;;-7.80;99.90;;;;;;5021014;28;20209;-69
2021/01/29 13:13:28;;;;;;;5.53;1.60;;;-7.90;99.90;;;;;;5020825;28;20949;-69
2021/01/29 13:16:37;;;;;;;2.80;1.20;;;-7.90;99.90;;;;;;5017770;28;20222;-68
2021/01/29 13:19:06;;;;;;;2.97;1.40;;;-8.00;99.90;;;;;;4977506;28;21001;-68
2021/01/29 13:22:00;;;;;;;3.80;1.40;;;-8.00;99.90;;;;;;4975609;28;20719;-69
2021/01/29 13:24:33;;;;;;;8.50;1.30;;;-8.20;99.90;;;;;;4980436;28;20717;-68
2021/01/29 13:27:10;;;;;;;1.40;1.20;;;-8.20;99.90;;;;;;4978538;28;20245;-69
2021/01/29 13:29:36;;;;;;;4.87;1.57;;;-8.30;99.90;;;;;;4981678;28;20215;-68
2021/01/29 13:32:35;;;;;;;3.53;1.30;;;-8.30;99.90;;;;;;4981294;28;20258;-69
2021/01/29 13:35:07;;;;;;;1.30;1.20;;;-8.30;99.90;;;;;;4979097;28;20239;-69
2021/01/29 13:37:32;;;;;;;1.83;1.30;;;-8.30;99.90;;;;;;4983887;28;21012;-69
2021/01/29 13:40:34;;;;;;;6.63;1.43;;;-8.30;99.90;;;;;;4984167;28;20298;-69
2021/01/29 13:43:14;;;;;;;1.83;1.33;;;-8.30;99.90;;;;;;4931014;29;20201;-67